TimePDT,TemperatureF,Dew PointF,Humidity,Sea Level PressureIn,VisibilityMPH,Wind Direction,Wind SpeedMPH,Gust SpeedMPH,PrecipitationIn,Events,Conditions,WindDirDegrees,DateUTC
12:53 AM,75.9,50.0,40,29.75,10.0,WSW,9.2,-,N/A,,Clear,250,2013-07-22 07:53:00
1:53 AM,73.9,48.9,41,29.76,10.0,WSW,10.4,-,N/A,,Clear,250,2013-07-22 08:53:00
2:53 AM,73.9,48.0,40,29.77,10.0,WSW,11.5,20.7,N/A,,Clear,240,2013-07-22 09:53:00
3:53 AM,73.0,46.9,39,29.78,10.0,WSW,10.4,17.3,N/A,,Clear,240,2013-07-22 10:53:00
4:53 AM,71.1,46.0,41,29.80,10.0,SW,11.5,-,N/A,,Clear,230,2013-07-22 11:53:00
5:53 AM,70.0,45.0,41,29.82,10.0,SW,8.1,-,N/A,,Clear,230,2013-07-22 12:53:00
6:53 AM,72.0,44.1,37,29.84,10.0,SSW,6.9,-,N/A,,Clear,210,2013-07-22 13:53:00
7:53 AM,75.0,46.9,37,29.86,10.0,WSW,10.4,-,N/A,,Clear,250,2013-07-22 14:53:00
8:53 AM,79.0,46.9,32,29.86,10.0,WSW,9.2,-,N/A,,Clear,250,2013-07-22 15:53:00
9:53 AM,82.0,46.9,29,29.87,10.0,WNW,9.2,-,N/A,,Clear,290,2013-07-22 16:53:00
10:53 AM,86.0,48.0,27,29.87,10.0,West,9.2,16.1,N/A,,Clear,260,2013-07-22 17:53:00
11:53 AM,89.1,46.0,22,29.86,10.0,WSW,8.1,-,N/A,,Clear,240,2013-07-22 18:53:00
12:53 PM,91.0,43.0,19,29.85,10.0,WNW,6.9,-,N/A,,Clear,290,2013-07-22 19:53:00
1:53 PM,93.9,43.0,17,29.84,10.0,WNW,6.9,-,N/A,,Clear,300,2013-07-22 20:53:00
2:53 PM,96.1,39.9,14,29.82,10.0,WNW,8.1,-,N/A,,Clear,300,2013-07-22 21:53:00
3:53 PM,98.1,44.1,16,29.81,10.0,West,8.1,-,N/A,,Clear,270,2013-07-22 22:53:00
4:53 PM,99.0,45.0,16,29.80,10.0,Variable,5.8,-,N/A,,Clear,0,2013-07-22 23:53:00
5:53 PM,97.0,41.0,14,29.78,10.0,Calm,Calm,-,N/A,,Clear,0,2013-07-23 00:53:00
6:53 PM,98.1,37.0,12,29.78,10.0,Calm,Calm,-,N/A,,Clear,0,2013-07-23 01:53:00
7:53 PM,95.0,42.1,16,29.78,10.0,Calm,Calm,-,N/A,,Clear,0,2013-07-23 02:53:00
8:53 PM,82.9,44.1,25,29.78,10.0,South,4.6,-,N/A,,Clear,190,2013-07-23 03:53:00
9:53 PM,80.1,48.0,32,29.82,10.0,SW,8.1,-,0.00,,Clear,220,2013-07-23 04:53:00
10:53 PM,75.0,46.0,36,29.83,10.0,South,3.5,-,N/A,,Clear,170,2013-07-23 05:53:00
11:53 PM,66.0,50.0,56,29.86,10.0,SSE,4.6,-,N/A,,Clear,160,2013-07-23 06:53:00